Weather History for Thomson, GA

Change the Weather History Date:

Monday, March 17, 2014

  Actual Average (KDBN) Record (KDBN)
Temperature  
Mean Temperature 48 °F -  
Max Temperature 59 °F 68 °F 89 °F (1945)
Min Temperature 35 °F 42 °F 27 °F (1988)
Degree Days  
Heating Degree Days 18    
Moisture  
Dew Point 44 °F    
Average Humidity 100    
Maximum Humidity 100    
Minimum Humidity 100    
Precipitation  
Precipitation 0.00 in - - ()
Sea Level Pressure  
Sea Level Pressure 29.82 in    
Wind  
Wind Speed 5 mph (NE)    
Max Wind Speed 12 mph    
Max Gust Speed 16 mph    
Visibility 5 miles    
Events      
Averages and records for this station are not official NWS values.
T = Trace of Precipitation, MM = Missing Value Source: NWS Daily Summary

Daily Weather History Graph

Daily Weather History Graph

Search for Another Location

Airport:

Trip Planner

Search our weather history database for the weather conditions in past years. The results will help you decide how hot, cold, wet, or windy it might be!

Date:

Astronomy

Mar. 17, 2014 Rise Set
Actual Time 7:37 AM EDT 7:39 PM EDT
Civil Twilight 7:13 AM EDT 8:04 PM EDT
Nautical Twilight 6:44 AM EDT 8:33 PM EDT
Astronomical Twilight 6:15 AM EDT 9:02 PM EDT
Moon 8:49 PM EDT (3/17) 7:56 AM EDT (3/17)
Length of Visible Light 12h 51m
Length of Day
12h 01m
Full, 99% of the Moon is Illuminated
Mar 17
Full
Mar 23
Last Quarter
Mar 30
New
Apr 7
First Quarter
Apr 15
Full

Hourly Weather History & Observations

Time (EDT) Temp. Windchill Dew Point Humidity Pressure Visibility Wind Dir Wind Speed Gust Speed Precip Events Conditions
12:15 AM 59.2 °F - 59.2 °F 100% 29.79 in 10.0 mi Calm Calm - N/A   Overcast
12:35 AM 59.0 °F - 59.0 °F 100% 29.78 in 10.0 mi Calm Calm - N/A   Overcast
12:55 AM 58.8 °F - 58.8 °F 100% 29.77 in 10.0 mi Calm Calm - N/A   Overcast
1:15 AM 58.6 °F - 58.6 °F 100% 29.77 in 10.0 mi Calm Calm - N/A   Overcast
1:35 AM 58.3 °F - 58.3 °F 100% 29.76 in 10.0 mi South 3.5 mph - N/A   Scattered Clouds
1:55 AM 58.1 °F - 58.1 °F 100% 29.75 in 10.0 mi Calm Calm - N/A   Clear
2:15 AM 57.6 °F - 57.6 °F 100% 29.75 in 10.0 mi Calm Calm - N/A   Scattered Clouds
2:35 AM 56.8 °F - 56.8 °F 100% 29.77 in 10.0 mi NW 3.5 mph - N/A   Mostly Cloudy
2:55 AM 56.5 °F - 56.5 °F 100% 29.75 in 10.0 mi Calm Calm - N/A   Overcast
3:15 AM 56.7 °F - 56.7 °F 100% 29.75 in 10.0 mi Calm Calm - N/A   Mostly Cloudy
3:35 AM 56.1 °F - 56.1 °F 100% 29.75 in 7.0 mi Calm Calm - N/A   Mostly Cloudy
3:55 AM 52.7 °F - 52.7 °F 100% 29.74 in 10.0 mi NNE 6.9 mph - N/A   Overcast
4:15 AM 50.9 °F - 50.9 °F 100% 29.74 in 10.0 mi NE 3.5 mph - N/A   Overcast
4:35 AM 49.8 °F - 49.8 °F 100% 29.75 in 10.0 mi NNE 6.9 mph - N/A   Overcast
4:55 AM 48.6 °F - 48.6 °F 100% 29.74 in 10.0 mi North 8.1 mph - N/A   Overcast
5:15 AM 46.8 °F - 46.8 °F 100% 29.74 in 10.0 mi NNE 8.1 mph - N/A   Overcast
5:35 AM 46.0 °F 43.9 °F 46.0 °F 100% 29.76 in 7.0 mi NE 4.6 mph - N/A   Overcast
5:55 AM 45.9 °F 42.9 °F 45.9 °F 100% 29.76 in 7.0 mi NE 5.8 mph - N/A   Overcast
6:15 AM 45.9 °F 43.6 °F 45.9 °F 100% 29.76 in 7.0 mi NNE 4.6 mph - N/A   Overcast
6:35 AM 45.5 °F 41.3 °F 45.5 °F 100% 29.78 in 5.0 mi NNE 8.1 mph - N/A   Overcast
6:55 AM 45.5 °F 41.3 °F 45.5 °F 100% 29.78 in 4.0 mi NNE 8.1 mph - N/A   Overcast
7:15 AM 45.0 °F 39.3 °F 45.0 °F 100% 29.76 in 3.0 mi NNE 11.5 mph - N/A   Overcast
7:35 AM 44.8 °F 39.9 °F 44.8 °F 100% 29.74 in 2.5 mi NE 9.2 mph - N/A   Overcast
7:55 AM 44.8 °F 42.4 °F 44.8 °F 100% 29.77 in 3.0 mi ENE 4.6 mph - N/A   Overcast
8:15 AM 44.8 °F 42.4 °F 44.8 °F 100% 29.78 in 3.0 mi NE 4.6 mph - N/A   Overcast
8:35 AM 44.8 °F 41.6 °F 44.8 °F 100% 29.79 in 1.5 mi ENE 5.8 mph - N/A   Overcast
8:55 AM 44.8 °F 41.0 °F 44.8 °F 100% 29.81 in 1.5 mi NE 6.9 mph - N/A   Overcast
9:15 AM 44.2 °F 39.2 °F 44.2 °F 100% 29.80 in 2.0 mi NE 9.2 mph - N/A   Overcast
9:35 AM 43.9 °F 38.8 °F 43.9 °F 100% 29.81 in 2.0 mi NNE 9.2 mph - N/A   Overcast
9:55 AM 43.7 °F 38.6 °F 43.7 °F 100% 29.83 in 3.0 mi NNE 9.2 mph - N/A   Overcast
10:15 AM 43.7 °F 39.1 °F 43.7 °F 100% 29.83 in 2.0 mi ENE 8.1 mph - N/A   Overcast
10:35 AM 43.3 °F 38.6 °F 43.3 °F 100% 29.83 in 3.0 mi NE 8.1 mph - N/A   Overcast
10:55 AM 43.5 °F 40.1 °F 43.5 °F 100% 29.85 in 2.5 mi NE 5.8 mph - N/A   Overcast
11:15 AM 43.2 °F 38.4 °F 43.2 °F 100% 29.85 in 1.5 mi ENE 8.1 mph - N/A   Overcast
11:35 AM 43.3 °F 39.2 °F 43.3 °F 100% 29.84 in 2.5 mi NE 6.9 mph - N/A   Overcast
11:55 AM 43.0 °F 39.5 °F 43.0 °F 100% 29.85 in 3.0 mi North 5.8 mph - N/A   Overcast
12:15 PM 42.4 °F 36.5 °F 42.4 °F 100% 29.85 in 5.0 mi NE 10.4 mph - N/A   Overcast
12:35 PM 41.9 °F 36.9 °F 41.9 °F 100% 29.85 in 7.0 mi NNE 8.1 mph - N/A   Overcast
12:55 PM 41.9 °F 36.3 °F 41.9 °F 100% 29.85 in 4.0 mi NE 9.2 mph 16.1 mph N/A   Overcast
1:15 PM 41.5 °F 35.4 °F 41.5 °F 100% 29.84 in 2.5 mi NE 10.4 mph - N/A   Overcast
1:35 PM 41.4 °F 36.2 °F 41.4 °F 100% 29.85 in 2.0 mi NE 8.1 mph - N/A   Overcast
1:55 PM 41.0 °F 35.2 °F 41.0 °F 100% 29.84 in 3.0 mi NNE 9.2 mph - N/A   Overcast
2:15 PM 41.0 °F 35.8 °F 41.0 °F 100% 29.84 in 3.0 mi NNE 8.1 mph - N/A   Overcast
2:35 PM 40.8 °F 34.5 °F 40.8 °F 100% 29.84 in 2.0 mi NE 10.4 mph - N/A   Overcast
2:55 PM 40.5 °F 34.6 °F 40.5 °F 100% 29.83 in 7.0 mi NNE 9.2 mph - N/A   Overcast
3:15 PM 40.5 °F 35.1 °F 40.5 °F 100% 29.83 in 4.0 mi NE 8.1 mph - N/A   Overcast
3:35 PM 40.3 °F 34.4 °F 40.3 °F 100% 29.80 in 3.0 mi NE 9.2 mph - N/A   Overcast
3:55 PM 40.1 °F 34.7 °F 40.1 °F 100% 29.80 in 7.0 mi NE 8.1 mph - N/A   Overcast
4:15 PM 39.7 °F 34.9 °F 39.7 °F 100% 29.82 in 10.0 mi ENE 6.9 mph - N/A   Overcast
4:35 PM 39.4 °F 33.8 °F 39.4 °F 100% 29.81 in 3.0 mi NE 8.1 mph - N/A   Overcast
4:55 PM 39.2 °F 33.0 °F 39.2 °F 100% 29.81 in 2.0 mi NE 9.2 mph - N/A   Overcast
5:15 PM 39.2 °F 33.0 °F 39.2 °F 100% 29.82 in 1.2 mi NNE 9.2 mph - N/A   Overcast
5:35 PM 39.2 °F 34.2 °F 39.2 °F 100% 29.82 in 7.0 mi NE 6.9 mph - N/A   Overcast
5:55 PM 39.2 °F 34.2 °F 39.2 °F 100% 29.83 in 1.0 mi NNE 6.9 mph - N/A   Overcast
6:15 PM 38.7 °F 33.6 °F 38.7 °F 100% 29.84 in 4.0 mi NE 6.9 mph 16.1 mph N/A   Overcast
6:35 PM 38.8 °F 33.2 °F 38.8 °F 100% 29.84 in 5.0 mi NE 8.1 mph - N/A   Overcast
6:55 PM 38.8 °F 33.2 °F 38.8 °F 100% 29.85 in 7.0 mi NE 8.1 mph - N/A   Overcast
7:15 PM 38.3 °F 33.2 °F 38.3 °F 100% 29.86 in 5.0 mi NE 6.9 mph - N/A   Overcast
7:35 PM 38.3 °F 31.9 °F 38.3 °F 100% 29.87 in 3.0 mi NNE 9.2 mph - N/A   Overcast
7:55 PM 38.1 °F 32.3 °F 38.1 °F 100% 29.87 in 2.0 mi NE 8.1 mph - N/A   Overcast
8:15 PM 38.1 °F 32.3 °F 38.1 °F 100% 29.86 in 4.0 mi NNE 8.1 mph - N/A   Overcast
8:35 PM 37.4 °F 31.4 °F 37.4 °F 100% 29.88 in 1.5 mi NE 8.1 mph - N/A   Overcast
8:55 PM 37.4 °F 32.8 °F 37.4 °F 100% 29.88 in 2.0 mi NE 5.8 mph - N/A   Overcast
9:15 PM 37.4 °F 32.8 °F 37.4 °F 100% 29.90 in 3.0 mi NE 5.8 mph - N/A   Overcast
9:35 PM 37.0 °F 31.6 °F 37.0 °F 100% 29.91 in 3.0 mi NNE 6.9 mph - N/A   Overcast
9:55 PM 37.0 °F 29.8 °F 37.0 °F 100% 29.91 in 3.0 mi NE 10.4 mph - N/A   Overcast
10:15 PM 37.0 °F 32.4 °F 37.0 °F 100% 29.92 in 5.0 mi NE 5.8 mph - N/A   Overcast
10:35 PM 36.9 °F 32.2 °F 36.9 °F 100% 29.93 in 2.5 mi NE 5.8 mph - N/A   Overcast
10:55 PM 36.7 °F 30.5 °F 36.7 °F 100% 29.92 in 2.5 mi NE 8.1 mph - N/A   Overcast
11:15 PM 36.3 °F 29.5 °F 36.3 °F 100% 29.93 in 2.5 mi NE 9.2 mph 16.1 mph N/A   Overcast
11:35 PM 36.0 °F 29.0 °F 36.0 °F 100% 29.93 in 2.5 mi NE 9.2 mph 16.1 mph N/A   Overcast
11:55 PM 35.8 °F 30.1 °F 35.8 °F 100% 29.92 in 2.0 mi NE 6.9 mph 16.1 mph N/A   Overcast